createdAt,value
2023-05-13T00:00:18.074Z,65.35
2023-05-13T00:02:44.682Z,65.43
2023-05-13T00:05:11.415Z,65.60
2023-05-13T00:07:37.964Z,65.55
2023-05-13T00:10:13.564Z,65.62
2023-05-13T00:12:40.119Z,66.10
2023-05-13T00:15:07.219Z,66.06
2023-05-13T00:17:33.737Z,65.65
2023-05-13T00:20:00.953Z,65.25
2023-05-13T00:22:27.408Z,65.12
2023-05-13T00:24:53.888Z,65.18
2023-05-13T00:27:28.014Z,65.54
2023-05-13T00:29:54.505Z,65.92
2023-05-13T00:32:23.990Z,66.48
2023-05-13T00:34:50.680Z,66.88
2023-05-13T00:37:17.236Z,66.91
2023-05-13T00:39:43.728Z,67.30
2023-05-13T00:42:13.767Z,67.04
2023-05-13T00:44:40.813Z,66.90
2023-05-13T00:47:19.621Z,66.75
2023-05-13T00:49:54.468Z,66.29
2023-05-13T00:52:20.948Z,66.50
2023-05-13T00:54:47.392Z,66.73
2023-05-13T00:57:24.646Z,66.30
2023-05-13T00:59:51.842Z,66.77
2023-05-13T01:02:53.321Z,66.71
2023-05-13T01:05:32.322Z,67.25
2023-05-13T01:08:31.503Z,67.74
2023-05-13T01:11:09.571Z,66.77
2023-05-13T01:13:52.863Z,66.98
2023-05-13T01:16:41.182Z,66.92
2023-05-13T01:19:40.091Z,67.47
2023-05-13T01:22:10.353Z,66.33
2023-05-13T01:24:36.890Z,67.02
2023-05-13T01:27:04.064Z,67.03
2023-05-13T01:29:31.248Z,67.13
2023-05-13T01:32:00.604Z,66.73
2023-05-13T01:34:28.363Z,66.73
2023-05-13T01:37:00.039Z,66.46
2023-05-13T01:39:27.902Z,66.47
2023-05-13T01:41:54.413Z,67.06
2023-05-13T01:44:20.869Z,67.40
2023-05-13T01:46:55.390Z,66.85
2023-05-13T01:49:21.952Z,66.11
2023-05-13T01:51:48.418Z,65.69
2023-05-13T01:54:14.864Z,66.06
2023-05-13T01:56:41.338Z,65.83
2023-05-13T01:59:10.323Z,65.95
2023-05-13T02:01:37.009Z,65.50
2023-05-13T02:04:03.806Z,65.89
2023-05-13T02:06:30.391Z,65.74
2023-05-13T02:08:56.887Z,66.29
2023-05-13T02:11:23.424Z,66.82
2023-05-13T02:13:49.891Z,66.48
2023-05-13T02:16:18.175Z,65.78
2023-05-13T02:18:44.756Z,65.56
2023-05-13T02:21:11.403Z,65.61
2023-05-13T02:23:37.844Z,66.54
2023-05-13T02:26:04.525Z,66.37
2023-05-13T02:28:31.035Z,65.92
2023-05-13T02:30:57.492Z,66.43
2023-05-13T02:33:23.938Z,67.05
2023-05-13T02:35:50.468Z,67.24
2023-05-13T02:38:16.972Z,67.30
2023-05-13T02:40:44.130Z,66.87
2023-05-13T02:43:10.651Z,66.79
2023-05-13T02:45:40.092Z,66.85
2023-05-13T02:48:06.606Z,66.31
2023-05-13T02:50:33.247Z,66.16
2023-05-13T02:52:59.821Z,66.80
2023-05-13T02:55:26.512Z,67.28
2023-05-13T02:57:52.997Z,67.25
2023-05-13T03:00:19.892Z,67.14
2023-05-13T03:02:46.677Z,66.94
2023-05-13T03:05:13.218Z,66.80
2023-05-13T03:07:39.820Z,66.79
2023-05-13T03:10:07.346Z,66.80
2023-05-13T03:12:36.591Z,67.01
2023-05-13T03:15:12.848Z,66.86
2023-05-13T03:17:39.347Z,66.62
2023-05-13T03:20:09.442Z,66.25
2023-05-13T03:22:40.304Z,66.94
2023-05-13T03:25:07.584Z,67.13
2023-05-13T03:27:46.913Z,66.98
2023-05-13T03:30:14.164Z,66.97
2023-05-13T03:32:40.789Z,66.83
2023-05-13T03:35:07.737Z,66.68
2023-05-13T03:37:34.189Z,66.14
2023-05-13T03:40:00.892Z,66.28
2023-05-13T03:42:28.273Z,66.02
2023-05-13T03:44:56.909Z,65.81
2023-05-13T03:47:24.008Z,65.72
2023-05-13T03:49:50.559Z,65.45
2023-05-13T03:52:17.083Z,65.89
2023-05-13T03:54:45.200Z,65.92
2023-05-13T03:57:11.640Z,65.41
2023-05-13T03:59:38.126Z,65.26
2023-05-13T04:02:04.930Z,64.95
2023-05-13T04:04:31.469Z,64.93
2023-05-13T04:06:57.959Z,65.52
2023-05-13T04:09:24.449Z,66.14
2023-05-13T04:11:51.011Z,67.31
2023-05-13T04:14:17.950Z,66.88
2023-05-13T04:16:44.546Z,66.84
2023-05-13T04:19:11.561Z,66.69
2023-05-13T04:21:38.130Z,66.34
2023-05-13T04:24:05.236Z,66.54
2023-05-13T04:26:37.161Z,66.08
2023-05-13T04:29:03.605Z,66.66
2023-05-13T04:31:30.138Z,66.37
2023-05-13T04:33:56.963Z,67.29
2023-05-13T04:36:23.466Z,68.01
2023-05-13T04:38:57.679Z,67.71
2023-05-13T04:41:24.427Z,67.67
2023-05-13T04:43:51.015Z,67.46
2023-05-13T04:46:17.653Z,67.56
2023-05-13T04:48:48.158Z,67.35
2023-05-13T04:51:27.518Z,66.51
2023-05-13T04:53:54.540Z,66.57
2023-05-13T04:56:21.773Z,66.16
2023-05-13T04:58:49.886Z,66.83
2023-05-13T05:01:16.435Z,66.93
2023-05-13T05:03:43.004Z,66.95
2023-05-13T05:06:09.558Z,66.84
2023-05-13T05:08:36.054Z,67.17
2023-05-13T05:11:02.541Z,67.11
2023-05-13T05:13:29.023Z,67.43
2023-05-13T05:15:55.864Z,66.40
2023-05-13T05:18:22.459Z,66.34
2023-05-13T05:20:49.068Z,66.49
2023-05-13T05:23:15.594Z,66.44
2023-05-13T05:25:42.082Z,66.39
2023-05-13T05:28:09.240Z,67.23
2023-05-13T05:30:39.475Z,67.33
2023-05-13T05:33:09.757Z,67.64
2023-05-13T05:35:38.199Z,66.89
2023-05-13T05:38:05.296Z,67.29
2023-05-13T05:40:32.963Z,67.19
2023-05-13T05:42:59.463Z,66.65
2023-05-13T05:45:25.983Z,65.93
2023-05-13T05:47:53.972Z,67.13
2023-05-13T05:50:21.019Z,66.05
2023-05-13T05:52:47.615Z,65.71
2023-05-13T05:55:14.099Z,65.72
2023-05-13T05:57:40.587Z,65.56
2023-05-13T06:00:08.047Z,65.63
2023-05-13T06:02:34.670Z,65.54
2023-05-13T06:05:01.198Z,66.05
2023-05-13T06:07:27.688Z,66.15
2023-05-13T06:09:55.223Z,66.06
2023-05-13T06:12:22.666Z,65.95
2023-05-13T06:14:49.743Z,66.07
2023-05-13T06:17:16.248Z,66.06
2023-05-13T06:19:42.816Z,65.68
2023-05-13T06:22:10.455Z,65.95
2023-05-13T06:24:38.802Z,66.04
2023-05-13T06:27:05.593Z,66.23
2023-05-13T06:29:32.083Z,66.27
2023-05-13T06:31:58.796Z,66.46
2023-05-13T06:34:25.383Z,66.23
2023-05-13T06:36:51.936Z,65.70
2023-05-13T06:39:18.417Z,65.33
2023-05-13T06:41:44.961Z,64.83
2023-05-13T06:44:11.465Z,64.90
2023-05-13T06:46:38.012Z,64.56
2023-05-13T06:49:04.817Z,64.43
2023-05-13T06:51:32.915Z,63.99
2023-05-13T06:53:59.469Z,63.83
2023-05-13T06:56:26.356Z,63.02
2023-05-13T06:58:53.383Z,62.55
2023-05-13T07:01:19.897Z,62.69
2023-05-13T07:03:46.551Z,62.03
2023-05-13T07:06:13.063Z,61.02
2023-05-13T07:08:40.716Z,60.84
2023-05-13T07:11:07.326Z,60.04
2023-05-13T07:13:34.910Z,59.59
2023-05-13T07:16:04.320Z,59.08
2023-05-13T07:18:31.004Z,58.52
2023-05-13T07:20:57.580Z,56.62
2023-05-13T07:23:24.187Z,56.45
2023-05-13T07:25:52.036Z,55.73
2023-05-13T07:28:22.190Z,55.11
2023-05-13T07:30:48.751Z,53.49
2023-05-13T07:33:15.345Z,51.64
2023-05-13T07:35:42.023Z,52.16
2023-05-13T07:38:11.011Z,52.30
2023-05-13T07:40:37.963Z,51.61
2023-05-13T07:43:04.680Z,52.05
2023-05-13T07:45:31.654Z,51.93
2023-05-13T07:47:58.382Z,51.79
2023-05-13T07:50:24.878Z,51.49
2023-05-13T07:52:51.821Z,51.09
2023-05-13T07:55:18.801Z,50.58
2023-05-13T07:57:45.651Z,49.44
2023-05-13T08:00:12.758Z,48.98
2023-05-13T08:02:39.644Z,49.19
2023-05-13T08:05:07.053Z,49.78
2023-05-13T08:07:36.127Z,50.31
2023-05-13T08:10:02.788Z,50.63
2023-05-13T08:12:29.295Z,50.80
2023-05-13T08:14:55.780Z,50.71
2023-05-13T08:17:22.595Z,50.15
2023-05-13T08:19:49.130Z,48.51
2023-05-13T08:22:15.690Z,48.05
2023-05-13T08:24:43.092Z,48.11
2023-05-13T08:27:09.800Z,47.14
2023-05-13T08:29:36.320Z,47.30
2023-05-13T08:32:03.015Z,47.45
2023-05-13T08:34:29.700Z,47.35
2023-05-13T08:36:56.226Z,47.05
2023-05-13T08:39:22.755Z,44.94
2023-05-13T08:41:52.034Z,45.47
2023-05-13T08:44:22.486Z,44.71
2023-05-13T08:47:04.416Z,44.55
2023-05-13T08:49:31.409Z,43.47
2023-05-13T08:51:58.004Z,44.31
2023-05-13T08:54:25.762Z,44.64
2023-05-13T08:56:52.285Z,44.54
2023-05-13T08:59:18.732Z,44.50
2023-05-13T09:01:45.616Z,44.36
2023-05-13T09:04:12.536Z,44.07
2023-05-13T09:06:38.977Z,43.31
2023-05-13T09:09:06.380Z,43.69
2023-05-13T09:11:33.963Z,43.27
2023-05-13T09:14:03.709Z,43.54
2023-05-13T09:16:32.579Z,43.50
2023-05-13T09:19:05.305Z,40.98
2023-05-13T09:21:35.981Z,42.10
2023-05-13T09:24:23.293Z,41.56
2023-05-13T09:26:51.546Z,42.48
2023-05-13T09:29:29.032Z,42.80
2023-05-13T09:31:58.965Z,42.96
2023-05-13T09:34:34.342Z,42.55
2023-05-13T09:37:08.670Z,42.41
2023-05-13T09:39:41.449Z,40.57
2023-05-13T09:42:19.329Z,38.72
2023-05-13T09:44:47.256Z,39.12
2023-05-13T09:47:15.419Z,38.65
2023-05-13T09:49:44.093Z,39.01
2023-05-13T09:52:11.710Z,38.68
2023-05-13T09:54:38.907Z,38.77
2023-05-13T09:57:06.230Z,38.97
2023-05-13T09:59:34.771Z,38.32
2023-05-13T10:02:06.646Z,38.57
2023-05-13T10:04:33.927Z,38.23
2023-05-13T10:07:04.976Z,37.59
2023-05-13T10:09:38.434Z,37.08
2023-05-13T10:12:08.473Z,37.83
2023-05-13T10:14:37.342Z,37.93
2023-05-13T10:17:05.301Z,37.45
2023-05-13T10:19:32.515Z,37.58
2023-05-13T10:21:59.627Z,37.81
2023-05-13T10:24:28.853Z,35.98
2023-05-13T10:26:56.873Z,35.25
2023-05-13T10:29:26.385Z,35.76
2023-05-13T10:31:54.325Z,36.54
2023-05-13T10:34:22.872Z,37.46
2023-05-13T10:37:04.182Z,38.25
2023-05-13T10:40:19.852Z,37.77
2023-05-13T10:43:25.100Z,38.11
2023-05-13T10:46:02.258Z,38.78
2023-05-13T10:48:50.998Z,38.41
2023-05-13T10:51:23.892Z,38.36
2023-05-13T10:53:57.882Z,38.47
2023-05-13T10:56:28.898Z,35.82
2023-05-13T10:59:02.375Z,35.46
2023-05-13T11:01:44.251Z,36.51
2023-05-13T11:04:21.312Z,36.60
2023-05-13T11:06:50.641Z,37.09
2023-05-13T11:09:20.291Z,35.92
2023-05-13T11:11:55.445Z,37.30
2023-05-13T11:14:25.242Z,37.12
2023-05-13T11:17:10.087Z,36.69
2023-05-13T11:19:44.632Z,37.23
2023-05-13T11:22:15.483Z,35.74
2023-05-13T11:24:46.556Z,35.17
2023-05-13T11:27:15.369Z,34.95
2023-05-13T11:29:53.335Z,33.70
2023-05-13T11:32:55.957Z,33.96
2023-05-13T11:35:33.147Z,34.50
2023-05-13T11:38:02.204Z,34.99
2023-05-13T11:40:36.968Z,35.11
2023-05-13T11:43:05.167Z,34.35
2023-05-13T11:45:32.363Z,33.84
2023-05-13T11:47:59.060Z,33.55
2023-05-13T11:50:32.285Z,33.42
2023-05-13T11:53:01.756Z,33.29
2023-05-13T11:55:29.132Z,33.08
2023-05-13T11:57:56.876Z,32.88
2023-05-13T12:00:28.722Z,33.00
2023-05-13T12:02:56.403Z,33.18
2023-05-13T12:05:23.828Z,33.39
2023-05-13T12:07:51.292Z,33.85
2023-05-13T12:10:18.168Z,34.58
2023-05-13T12:12:46.240Z,34.92
2023-05-13T12:15:16.969Z,34.76
2023-05-13T12:17:44.899Z,34.03
2023-05-13T12:20:14.079Z,34.26
2023-05-13T12:22:43.758Z,34.20
2023-05-13T12:25:35.084Z,34.82
2023-05-13T12:28:25.278Z,35.58
2023-05-13T12:31:01.292Z,34.67
2023-05-13T12:33:40.569Z,33.83
2023-05-13T12:36:33.717Z,34.53
2023-05-13T12:39:10.088Z,32.45
2023-05-13T12:41:41.144Z,34.79
2023-05-13T12:44:17.000Z,34.22
2023-05-13T12:46:54.558Z,34.89
2023-05-13T12:49:21.257Z,35.05
2023-05-13T12:51:47.879Z,34.08
2023-05-13T12:54:14.484Z,33.61
2023-05-13T12:56:41.127Z,34.80
2023-05-13T12:59:09.039Z,35.00
2023-05-13T13:01:37.213Z,34.04
2023-05-13T13:04:04.029Z,34.53
2023-05-13T13:06:32.278Z,35.09
2023-05-13T13:08:58.783Z,35.44
2023-05-13T13:11:25.288Z,35.48
2023-05-13T13:13:52.129Z,34.91
2023-05-13T13:16:18.976Z,35.32
2023-05-13T13:18:45.740Z,35.98
2023-05-13T13:21:12.253Z,36.37
2023-05-13T13:23:38.755Z,34.90
2023-05-13T13:26:05.321Z,34.65
2023-05-13T13:28:31.866Z,35.11
2023-05-13T13:30:59.562Z,34.53
2023-05-13T13:33:26.037Z,33.47
2023-05-13T13:35:52.636Z,32.98
2023-05-13T13:38:19.168Z,33.75
2023-05-13T13:40:45.682Z,33.16
2023-05-13T13:43:12.230Z,32.04
2023-05-13T13:45:39.156Z,32.06
2023-05-13T13:48:06.292Z,32.38
2023-05-13T13:50:32.896Z,31.03
2023-05-13T13:52:59.550Z,30.34
2023-05-13T13:55:26.901Z,31.11
2023-05-13T13:57:53.493Z,31.63
2023-05-13T14:00:20.589Z,32.19
2023-05-13T14:02:47.485Z,32.50
2023-05-13T14:05:14.367Z,33.14
2023-05-13T14:07:41.150Z,33.24
2023-05-13T14:10:08.758Z,34.07
2023-05-13T14:12:38.313Z,34.56
2023-05-13T14:15:05.998Z,35.06
2023-05-13T14:17:33.531Z,34.94
2023-05-13T14:20:00.140Z,34.97
2023-05-13T14:22:26.996Z,35.44
2023-05-13T14:24:53.601Z,35.47
2023-05-13T14:27:21.415Z,35.08
2023-05-13T14:29:48.824Z,34.70
2023-05-13T14:32:15.732Z,34.39
2023-05-13T14:34:43.068Z,34.33
2023-05-13T14:37:09.691Z,34.09
2023-05-13T14:39:36.314Z,34.09
2023-05-13T14:42:03.593Z,34.55
2023-05-13T14:44:30.192Z,34.94
2023-05-13T14:46:56.881Z,34.00
2023-05-13T14:49:23.536Z,33.16
2023-05-13T14:51:50.080Z,32.33
2023-05-13T14:54:17.694Z,31.65
2023-05-13T14:56:44.786Z,32.28
2023-05-13T14:59:11.620Z,33.31
2023-05-13T15:01:38.488Z,33.47
2023-05-13T15:04:05.445Z,33.68
2023-05-13T15:06:32.098Z,33.50
2023-05-13T15:08:58.740Z,33.49
2023-05-13T15:11:28.205Z,32.27
2023-05-13T15:13:55.401Z,32.68
2023-05-13T15:16:22.373Z,32.64
2023-05-13T15:18:50.148Z,32.80
2023-05-13T15:21:17.380Z,32.65
2023-05-13T15:23:43.971Z,32.94
2023-05-13T15:26:10.572Z,32.94
2023-05-13T15:28:37.748Z,33.26
2023-05-13T15:31:05.553Z,33.17
2023-05-13T15:33:35.371Z,32.80
2023-05-13T15:36:01.981Z,33.00
2023-05-13T15:38:28.549Z,33.21
2023-05-13T15:40:55.015Z,32.67
2023-05-13T15:43:21.601Z,32.25
2023-05-13T15:45:49.691Z,32.07
2023-05-13T15:48:17.433Z,31.72
2023-05-13T15:50:44.251Z,31.61
2023-05-13T15:53:10.901Z,31.50
2023-05-13T15:55:39.255Z,31.48
2023-05-13T15:58:06.053Z,31.94
2023-05-13T16:00:32.673Z,31.84
2023-05-13T16:02:59.166Z,31.56
2023-05-13T16:05:25.874Z,31.53
2023-05-13T16:07:52.451Z,31.46
2023-05-13T16:10:18.981Z,31.63
2023-05-13T16:12:45.534Z,31.58
2023-05-13T16:15:12.094Z,31.09
2023-05-13T16:17:38.702Z,30.89
2023-05-13T16:20:06.324Z,30.89
2023-05-13T16:22:38.227Z,31.29
2023-05-13T16:25:08.101Z,31.61
2023-05-13T16:27:36.470Z,31.83
2023-05-13T16:30:06.121Z,31.95
2023-05-13T16:32:34.716Z,32.04
2023-05-13T16:35:02.352Z,31.98
2023-05-13T16:37:30.129Z,31.81
2023-05-13T16:39:56.957Z,32.31
2023-05-13T16:42:23.610Z,32.22
2023-05-13T16:44:50.204Z,32.34
2023-05-13T16:47:16.718Z,32.81
2023-05-13T16:49:43.366Z,32.79
2023-05-13T16:52:09.872Z,32.96
2023-05-13T16:54:36.408Z,33.03
2023-05-13T16:57:03.071Z,33.28
2023-05-13T16:59:29.614Z,33.15
2023-05-13T17:01:56.199Z,33.27
2023-05-13T17:04:22.856Z,33.56
2023-05-13T17:06:49.500Z,33.64
2023-05-13T17:09:16.138Z,33.83
2023-05-13T17:11:43.471Z,33.90
2023-05-13T17:14:10.086Z,33.95
2023-05-13T17:16:36.959Z,34.31
2023-05-13T17:19:03.633Z,34.56
2023-05-13T17:21:30.357Z,34.35
2023-05-13T17:23:56.859Z,34.44
2023-05-13T17:26:23.408Z,34.98
2023-05-13T17:28:49.964Z,35.35
2023-05-13T17:31:16.708Z,35.05
2023-05-13T17:33:43.876Z,35.41
2023-05-13T17:36:10.917Z,35.55
2023-05-13T17:38:37.946Z,35.71
2023-05-13T17:41:04.982Z,35.74
2023-05-13T17:43:31.660Z,36.06
2023-05-13T17:45:58.822Z,35.74
2023-05-13T17:48:26.944Z,34.98
2023-05-13T17:50:53.815Z,34.72
2023-05-13T17:53:21.030Z,34.13
2023-05-13T17:55:48.559Z,34.22
2023-05-13T17:58:16.317Z,34.62
2023-05-13T18:00:43.310Z,34.71
2023-05-13T18:03:09.888Z,34.98
2023-05-13T18:05:36.639Z,35.50
2023-05-13T18:08:03.300Z,35.87
2023-05-13T18:10:29.913Z,36.27
2023-05-13T18:12:56.457Z,36.85
2023-05-13T18:15:23.321Z,36.97
2023-05-13T18:17:50.593Z,37.23
2023-05-13T18:20:19.753Z,37.32
2023-05-13T18:22:46.359Z,37.28
2023-05-13T18:25:13.133Z,38.05
2023-05-13T18:27:39.607Z,38.63
2023-05-13T18:30:07.652Z,38.80
2023-05-13T18:32:34.213Z,39.08
2023-05-13T18:35:00.714Z,39.20
2023-05-13T18:37:27.229Z,39.96
2023-05-13T18:39:53.760Z,40.74
2023-05-13T18:42:20.901Z,41.56
2023-05-13T18:44:47.487Z,42.05
2023-05-13T18:47:13.971Z,42.77
2023-05-13T18:49:40.425Z,43.24
2023-05-13T18:52:07.249Z,43.52
2023-05-13T18:54:33.742Z,44.04
2023-05-13T18:57:00.435Z,44.11
2023-05-13T18:59:27.139Z,44.26
2023-05-13T19:01:53.774Z,44.92
2023-05-13T19:04:20.570Z,45.48
2023-05-13T19:06:47.326Z,46.01
2023-05-13T19:09:14.273Z,46.07
2023-05-13T19:11:40.812Z,46.58
2023-05-13T19:14:07.455Z,46.62
2023-05-13T19:16:34.081Z,46.96
2023-05-13T19:19:00.624Z,47.52
2023-05-13T19:21:27.155Z,47.42
2023-05-13T19:23:53.691Z,47.75
2023-05-13T19:26:20.614Z,47.97
2023-05-13T19:28:47.617Z,48.38
2023-05-13T19:31:14.213Z,48.39
2023-05-13T19:33:41.063Z,48.83
2023-05-13T19:36:08.781Z,49.23
2023-05-13T19:38:35.596Z,49.00
2023-05-13T19:41:02.098Z,48.81
2023-05-13T19:43:28.611Z,49.48
2023-05-13T19:45:57.425Z,49.55
2023-05-13T19:48:23.946Z,49.85
2023-05-13T19:50:53.222Z,50.23
2023-05-13T19:53:21.437Z,50.40
2023-05-13T19:55:47.960Z,51.03
2023-05-13T19:58:14.467Z,51.21
2023-05-13T20:00:41.025Z,51.53
2023-05-13T20:03:07.575Z,51.33
2023-05-13T20:05:34.208Z,51.27
2023-05-13T20:08:01.114Z,51.30
2023-05-13T20:10:27.706Z,51.59
2023-05-13T20:12:54.227Z,52.08
2023-05-13T20:15:20.885Z,52.34
2023-05-13T20:17:47.530Z,51.99
2023-05-13T20:20:14.145Z,52.28
2023-05-13T20:22:40.654Z,52.79
2023-05-13T20:25:07.541Z,53.41
2023-05-13T20:27:34.758Z,53.18
2023-05-13T20:30:02.074Z,53.17
2023-05-13T20:32:28.694Z,53.33
2023-05-13T20:34:55.217Z,53.25
2023-05-13T20:37:24.086Z,53.51
2023-05-13T20:39:51.558Z,53.76
2023-05-13T20:42:18.170Z,54.16
2023-05-13T20:44:46.292Z,54.39
2023-05-13T20:47:14.137Z,54.52
2023-05-13T20:49:43.742Z,55.12
2023-05-13T20:52:11.158Z,54.91
2023-05-13T20:54:38.552Z,54.64
2023-05-13T20:57:05.702Z,55.40
2023-05-13T20:59:32.438Z,55.31
2023-05-13T21:01:59.041Z,55.18
2023-05-13T21:04:25.623Z,55.41
2023-05-13T21:06:52.973Z,54.78
2023-05-13T21:09:19.502Z,54.90
2023-05-13T21:11:46.109Z,54.84
2023-05-13T21:14:12.609Z,55.54
2023-05-13T21:16:39.102Z,55.59
2023-05-13T21:19:05.721Z,55.81
2023-05-13T21:21:32.380Z,55.29
2023-05-13T21:23:58.931Z,55.28
2023-05-13T21:26:25.933Z,55.47
2023-05-13T21:28:52.505Z,54.99
2023-05-13T21:31:19.095Z,55.16
2023-05-13T21:33:45.635Z,55.86
2023-05-13T21:36:12.093Z,56.02
2023-05-13T21:38:38.523Z,56.89
2023-05-13T21:41:05.063Z,56.21
2023-05-13T21:43:31.548Z,56.16
2023-05-13T21:45:58.152Z,56.58
2023-05-13T21:48:24.824Z,57.12
2023-05-13T21:50:53.688Z,58.16
2023-05-13T21:53:20.194Z,57.50
2023-05-13T21:55:49.290Z,57.44
2023-05-13T21:58:16.169Z,57.46
2023-05-13T22:00:44.004Z,58.12
2023-05-13T22:03:10.669Z,58.78
2023-05-13T22:05:43.493Z,58.32
2023-05-13T22:08:11.054Z,58.69
2023-05-13T22:10:38.988Z,58.82
2023-05-13T22:13:06.062Z,59.28
2023-05-13T22:15:32.608Z,58.58
2023-05-13T22:17:59.272Z,58.28
2023-05-13T22:20:26.592Z,58.64
2023-05-13T22:22:53.187Z,58.74
2023-05-13T22:25:21.956Z,58.48
2023-05-13T22:27:55.341Z,58.98
2023-05-13T22:30:21.969Z,58.93
2023-05-13T22:32:50.330Z,58.79
2023-05-13T22:35:17.095Z,58.66
2023-05-13T22:37:43.833Z,59.10
2023-05-13T22:40:18.688Z,59.09
2023-05-13T22:42:53.403Z,59.36
2023-05-13T22:45:19.959Z,59.64
2023-05-13T22:47:48.032Z,60.20
2023-05-13T22:50:14.591Z,59.83
2023-05-13T22:52:41.130Z,60.00
2023-05-13T22:55:08.621Z,59.66
2023-05-13T22:57:35.158Z,60.13
2023-05-13T23:00:01.914Z,59.65
2023-05-13T23:02:28.432Z,60.21
2023-05-13T23:04:54.957Z,60.15
2023-05-13T23:07:22.719Z,59.91
2023-05-13T23:09:57.986Z,60.26
2023-05-13T23:12:33.196Z,59.73
2023-05-13T23:14:59.724Z,60.46
2023-05-13T23:17:26.248Z,60.41
2023-05-13T23:19:52.708Z,60.13
2023-05-13T23:22:19.161Z,59.96
2023-05-13T23:24:45.619Z,60.17
2023-05-13T23:27:22.836Z,60.47
2023-05-13T23:29:49.277Z,60.56
2023-05-13T23:32:16.046Z,60.81
2023-05-13T23:34:42.565Z,61.63
2023-05-13T23:37:09.074Z,61.34
2023-05-13T23:39:35.860Z,61.28
2023-05-13T23:42:02.396Z,61.76
2023-05-13T23:44:37.781Z,61.80
2023-05-13T23:47:04.737Z,61.91
2023-05-13T23:49:31.268Z,62.41
2023-05-13T23:51:57.713Z,61.77
2023-05-13T23:54:24.198Z,61.48
2023-05-13T23:56:53.277Z,61.45
2023-05-13T23:59:19.860Z,61.17
